CCGS Cape Ann — CFG7741 — position and weather

sailwx.info

Track history (hours):
 
Tides and Currents Weather Stations Pressure Air Temp Water Temp Dewpoint Dewpoint Depression Visibility Wind Speed Wind Dir Waves Ship Positions

CCGS Cape Ann

Last reported at 2018-Jun-18 17:18 UTC. Time now 2018-Jun-18 17:33 UTC.
Position N 49°06' W 125°56'.

Length 15 m.

Type: SAR. MMSI: 316005204.

Date/timePositionNaut miles runAvg speedWind from/ knotsBaromVisibWave heightAir tempDewpointWater temp
2018-Jun-18 17:18N 49°06' W 125°56'0 1.3
2018-Jun-18 16:55N 49°06' W 125°56'  
2018-Jun-16 02:39N 49°09' W 125°54'4 0.4
2018-Jun-15 17:59N 49°07' W 125°58'1 2.4
2018-Jun-15 17:26N 49°06' W 125°60'3 1.2
2018-Jun-15 14:37N 49°05' W 125°55'0 4.5
2018-Jun-15 14:30N 49°05' W 125°54'2 4.4
2018-Jun-15 14:00N 49°06' W 125°57'1 1.9
2018-Jun-15 13:25N 49°07' W 125°56'1 2.8
2018-Jun-15 13:00N 49°06' W 125°56'0 0.7
2018-Jun-15 12:24N 49°06' W 125°56'4 0.3
2018-Jun-14 22:23N 49°04' W 125°52'820.9
2018-Jun-14 22:00N 48°59' W 125°42'1020.6
2018-Jun-14 21:30N 48°52' W 125°30'714.5
2018-Jun-14 21:00N 48°49' W 125°20'2722.3
2018-Jun-14 19:48N 48°35' W 124°45'723.7
2018-Jun-14 19:30N 48°32' W 124°35'1224.4
2018-Jun-14 19:00N 48°28' W 124°18'37 4.3
2018-Jun-14 10:24N 48°25' W 123°23'0 0.0
2018-Jun-14 10:00N 48°25' W 123°23'4 0.3
2018-Jun-13 18:31N 48°25' W 123°17'124.3
2018-Jun-13 18:28N 48°26' W 123°17'1223.5
2018-Jun-13 17:58N 48°37' W 123°23'511.6
2018-Jun-13 17:30N 48°40' W 123°29'2 0.3
2018-Jun-13 10:39N 48°39' W 123°27'0 0.0
2018-Jun-13 10:27N 48°39' W 123°27'0 0.0
2018-Jun-13 09:57N 48°39' W 123°27'0 0.0
2018-Jun-13 09:27N 48°39' W 123°27'0 0.0
2018-Jun-13 08:57N 48°39' W 123°27'0 0.0
2018-Jun-13 08:27N 48°39' W 123°27'0 0.0
2018-Jun-13 01:45N 48°39' W 123°27'0 0.0
2018-Jun-13 01:15N 48°39' W 123°27'0 0.0
2018-Jun-13 00:57N 48°39' W 123°27'0 0.0
2018-Jun-12 23:00N 48°39' W 123°27'0 0.0
2018-Jun-12 22:30N 48°39' W 123°27'0 0.0
2018-Jun-12 22:00N 48°39' W 123°27'0 0.0
2018-Jun-12 21:21N 48°39' W 123°27'0 0.0
2018-Jun-12 20:57N 48°39' W 123°27'0 0.0
2018-Jun-12 18:24N 48°39' W 123°27'0 0.0
2018-Jun-12 18:00N 48°39' W 123°27'0 0.0
2018-Jun-12 17:30N 48°39' W 123°27'0 0.0
2018-Jun-12 17:00N 48°39' W 123°27'0 0.0
2018-Jun-12 16:30N 48°39' W 123°27'0 0.0
2018-Jun-12 15:54N 48°39' W 123°27'0 0.0
2018-Jun-12 15:24N 48°39' W 123°27'0 0.0
2018-Jun-12 14:18N 48°39' W 123°27'0 0.0
2018-Jun-12 08:30N 48°39' W 123°27'0 0.0
2018-Jun-12 06:54N 48°39' W 123°27'0 0.0
2018-Jun-12 04:00N 48°39' W 123°27'0 0.0
2018-Jun-12 03:27N 48°39' W 123°27'0 0.0
2018-Jun-12 02:57N 48°39' W 123°27'0 0.0
2018-Jun-12 02:27N 48°39' W 123°27'0 0.0
2018-Jun-12 01:57N 48°39' W 123°27'0 0.0
2018-Jun-12 01:27N 48°39' W 123°27'0 0.0
2018-Jun-12 00:57N 48°39' W 123°27'0 0.0
2018-Jun-12 00:30N 48°39' W 123°27'0 0.0
2018-Jun-11 23:57N 48°39' W 123°27'0 0.0
2018-Jun-11 23:30N 48°39' W 123°27'0 0.0
2018-Jun-11 22:51N 48°39' W 123°27'0 0.0
2018-Jun-11 22:27N 48°39' W 123°27'0 0.0
2018-Jun-11 22:00N 48°39' W 123°27'0 0.0
2018-Jun-11 21:27N 48°39' W 123°27'0 0.0
2018-Jun-11 20:57N 48°39' W 123°27'0 0.0
2018-Jun-11 20:15N 48°39' W 123°27'0 0.0
2018-Jun-11 18:00N 48°39' W 123°27'0 0.0
2018-Jun-11 17:30N 48°39' W 123°27'0 0.0
2018-Jun-11 17:00N 48°39' W 123°27'0 0.0
2018-Jun-11 16:18N 48°39' W 123°27'0 0.0
2018-Jun-11 15:48N 48°39' W 123°27'0 0.0
2018-Jun-11 15:24N 48°39' W 123°27'0 0.0
2018-Jun-11 15:00N 48°39' W 123°27'0 0.0
2018-Jun-11 14:30N 48°39' W 123°27'0 0.0
2018-Jun-11 14:00N 48°39' W 123°27'0 0.0
2018-Jun-11 13:30N 48°39' W 123°27'0 0.0
2018-Jun-11 12:48N 48°39' W 123°27'0 0.0
2018-Jun-11 12:30N 48°39' W 123°27'0 0.0
2018-Jun-11 11:24N 48°39' W 123°27'0 0.0
2018-Jun-11 11:00N 48°39' W 123°27'0 0.0
2018-Jun-11 10:30N 48°39' W 123°27'0 0.0
2018-Jun-11 10:00N 48°39' W 123°27'0 0.0
2018-Jun-11 09:18N 48°39' W 123°27'0 0.0
2018-Jun-11 08:48N 48°39' W 123°27'0 0.0
2018-Jun-11 08:24N 48°39' W 123°27'0 0.0
2018-Jun-11 08:00N 48°39' W 123°27'0 0.0
2018-Jun-11 07:30N 48°39' W 123°27'0 0.0
2018-Jun-11 07:00N 48°39' W 123°27'0 0.0
2018-Jun-11 06:30N 48°39' W 123°27'0 0.0
2018-Jun-11 06:00N 48°39' W 123°27'0 0.0
2018-Jun-11 05:30N 48°39' W 123°27'0 0.0
2018-Jun-11 05:00N 48°39' W 123°27'0 0.0
2018-Jun-11 04:27N 48°39' W 123°27'0 0.0
2018-Jun-11 03:54N 48°39' W 123°27'0 0.0
2018-Jun-11 03:21N 48°39' W 123°27'0 0.0
2018-Jun-11 03:00N 48°39' W 123°27'0 0.0
2018-Jun-11 02:30N 48°39' W 123°27'0 0.0
2018-Jun-11 01:54N 48°39' W 123°27'0 0.0
2018-Jun-11 00:48N 48°39' W 123°27'0 0.0
2018-Jun-11 00:24N 48°39' W 123°27'0 0.0
2018-Jun-10 22:42N 48°39' W 123°27'0 0.0
2018-Jun-10 22:06N 48°39' W 123°27'0 0.0
2018-Jun-10 21:48N 48°39' W 123°27'0 0.0
2018-Jun-10 21:24N 48°39' W 123°27'0 0.0
2018-Jun-10 20:06N 48°39' W 123°27'0 0.0
2018-Jun-10 19:54N 48°39' W 123°27'0 0.0
2018-Jun-10 19:24N 48°39' W 123°27'0 0.0
2018-Jun-10 18:00N 48°39' W 123°27'0 0.0
2018-Jun-10 17:12N 48°39' W 123°27'0 0.0
2018-Jun-10 17:00N 48°39' W 123°27'0 0.0
2018-Jun-10 16:30N 48°39' W 123°27'0 0.0
2018-Jun-10 15:54N 48°39' W 123°27'0 0.0
2018-Jun-10 15:30N 48°39' W 123°27'0 0.0
2018-Jun-10 15:00N 48°39' W 123°27'0 0.0
2018-Jun-10 14:30N 48°39' W 123°27'0 0.0
2018-Jun-10 13:24N 48°39' W 123°27'0 0.0
2018-Jun-10 13:00N 48°39' W 123°27'0 0.0
2018-Jun-10 12:24N 48°39' W 123°27'0 0.0
2018-Jun-10 11:54N 48°39' W 123°27'0 0.0
2018-Jun-10 11:30N 48°39' W 123°27'0 0.0
2018-Jun-10 11:00N 48°39' W 123°27'0 0.0
2018-Jun-10 10:24N 48°39' W 123°27'0 0.0
2018-Jun-10 09:54N 48°39' W 123°27'0 0.0
2018-Jun-10 09:27N 48°39' W 123°27'0 0.0
2018-Jun-10 08:54N 48°39' W 123°27'0 0.0
2018-Jun-10 08:24N 48°39' W 123°27'0 0.0
2018-Jun-10 07:57N 48°39' W 123°27'0 0.0
2018-Jun-10 07:30N 48°39' W 123°27'0 0.0
2018-Jun-10 06:57N 48°39' W 123°27'0 0.0
2018-Jun-10 06:30N 48°39' W 123°27'0 0.0
2018-Jun-10 06:00N 48°39' W 123°27'0 0.0
2018-Jun-10 05:30N 48°39' W 123°27'0 0.0
2018-Jun-10 05:00N 48°39' W 123°27'0 0.0
2018-Jun-10 04:27N 48°39' W 123°27'0 0.0
2018-Jun-10 03:51N 48°39' W 123°27'0 0.0
2018-Jun-10 03:27N 48°39' W 123°27'0 0.0
2018-Jun-10 03:00N 48°39' W 123°27'0 0.0
2018-Jun-10 02:18N 48°39' W 123°27'0 0.0
2018-Jun-10 01:54N 48°39' W 123°27'0 0.0
2018-Jun-10 01:30N 48°39' W 123°27'0 0.0
2018-Jun-10 01:00N 48°39' W 123°27'0 0.0
2018-Jun-10 00:24N 48°39' W 123°27'0 0.0
2018-Jun-09 23:57N 48°39' W 123°27'0 0.0
2018-Jun-09 23:21N 48°39' W 123°27'0 0.0
2018-Jun-09 22:54N 48°39' W 123°27'0 0.0
2018-Jun-09 22:27N 48°39' W 123°27'0 0.0
2018-Jun-09 22:00N 48°39' W 123°27'0 0.0
2018-Jun-09 21:03N 48°39' W 123°27'0 0.0
2018-Jun-09 20:39N 48°39' W 123°27'0 0.0
2018-Jun-09 20:27N 48°39' W 123°27'0 0.0
2018-Jun-09 19:45N 48°39' W 123°27'0 0.0
2018-Jun-09 19:30N 48°39' W 123°27'0 0.0
2018-Jun-09 18:54N 48°39' W 123°27'0 0.0
2018-Jun-09 18:27N 48°39' W 123°27'0 0.0
2018-Jun-09 17:54N 48°39' W 123°27'0 0.0
2018-Jun-09 17:24N 48°39' W 123°27'0 0.0
2018-Jun-09 17:00N 48°39' W 123°27'0 0.0
2018-Jun-09 16:30N 48°39' W 123°27'0 0.0
2018-Jun-09 15:48N 48°39' W 123°27'0 0.0
2018-Jun-09 15:00N 48°39' W 123°27'0 0.0
2018-Jun-09 14:30N 48°39' W 123°27'0 0.0
2018-Jun-09 14:00N 48°39' W 123°27'0 0.0
2018-Jun-09 13:30N 48°39' W 123°27'0 0.0
2018-Jun-09 12:54N 48°39' W 123°27'0 0.0
2018-Jun-09 11:54N 48°39' W 123°27'0 0.0
2018-Jun-09 11:30N 48°39' W 123°27'0 0.0
2018-Jun-09 10:54N 48°39' W 123°27'0 0.0
2018-Jun-09 10:21N 48°39' W 123°27'0 0.0
2018-Jun-09 09:54N 48°39' W 123°27'0 0.0
2018-Jun-09 06:06N 48°39' W 123°27'0 0.0
2018-Jun-09 05:36N 48°39' W 123°27'0 0.0
2018-Jun-09 05:30N 48°39' W 123°27'0 0.0
2018-Jun-09 04:54N 48°39' W 123°27'0 0.0
2018-Jun-09 04:30N 48°39' W 123°27'0 0.0
2018-Jun-09 03:54N 48°39' W 123°27'0 0.0
2018-Jun-09 02:06N 48°39' W 123°27'0 0.0
2018-Jun-09 02:00N 48°39' W 123°27'0 0.0
2018-Jun-09 01:27N 48°39' W 123°27'0 0.0
2018-Jun-09 00:12N 48°39' W 123°27'0 0.0
2018-Jun-09 00:00N 48°39' W 123°27'0 0.0
2018-Jun-08 22:18N 48°39' W 123°27'0 0.0
2018-Jun-08 22:00N 48°39' W 123°27'0 0.0
2018-Jun-08 21:30N 48°39' W 123°27'0 0.0
2018-Jun-08 20:54N 48°39' W 123°27'0 0.0
2018-Jun-08 20:27N 48°39' W 123°27'0 0.0
2018-Jun-08 19:54N 48°39' W 123°27'0 0.0
2018-Jun-08 19:30N 48°39' W 123°27'0 0.0
2018-Jun-08 18:51N 48°39' W 123°27'0 0.0
2018-Jun-08 18:21N 48°39' W 123°27'0 0.0
2018-Jun-08 17:57N 48°39' W 123°27'0 0.0
2018-Jun-08 17:27N 48°39' W 123°27'  
Track history (hours):
 
Tides and Currents Weather Stations Pressure Air Temp Water Temp Dewpoint Dewpoint Depression Visibility Wind Speed Wind Dir Waves Ship Positions

CCGS Cape Ann

Last reported at 2018-Jun-18 17:18 UTC. Time now 2018-Jun-18 17:33 UTC.
Position N 49°06' W 125°56'.

Length 15 m.

Type: SAR. MMSI: 316005204.

Date/timePositionNaut miles runAvg speedWind from/ knotsBaromVisibWave heightAir tempDewpointWater temp
2018-Jun-18 17:18N 49°06' W 125°56'0 1.3
2018-Jun-18 16:55N 49°06' W 125°56'  
2018-Jun-16 02:39N 49°09' W 125°54'4 0.4
2018-Jun-15 17:59N 49°07' W 125°58'1 2.4
2018-Jun-15 17:26N 49°06' W 125°60'3 1.2
2018-Jun-15 14:37N 49°05' W 125°55'0 4.5
2018-Jun-15 14:30N 49°05' W 125°54'2 4.4
2018-Jun-15 14:00N 49°06' W 125°57'1 1.9
2018-Jun-15 13:25N 49°07' W 125°56'1 2.8
2018-Jun-15 13:00N 49°06' W 125°56'0 0.7
2018-Jun-15 12:24N 49°06' W 125°56'4 0.3
2018-Jun-14 22:23N 49°04' W 125°52'820.9
2018-Jun-14 22:00N 48°59' W 125°42'1020.6
2018-Jun-14 21:30N 48°52' W 125°30'714.5
2018-Jun-14 21:00N 48°49' W 125°20'2722.3
2018-Jun-14 19:48N 48°35' W 124°45'723.7
2018-Jun-14 19:30N 48°32' W 124°35'1224.4
2018-Jun-14 19:00N 48°28' W 124°18'37 4.3
2018-Jun-14 10:24N 48°25' W 123°23'0 0.0
2018-Jun-14 10:00N 48°25' W 123°23'4 0.3
2018-Jun-13 18:31N 48°25' W 123°17'124.3
2018-Jun-13 18:28N 48°26' W 123°17'1223.5
2018-Jun-13 17:58N 48°37' W 123°23'511.6
2018-Jun-13 17:30N 48°40' W 123°29'2 0.3
2018-Jun-13 10:39N 48°39' W 123°27'0 0.0
2018-Jun-13 10:27N 48°39' W 123°27'0 0.0
2018-Jun-13 09:57N 48°39' W 123°27'0 0.0
2018-Jun-13 09:27N 48°39' W 123°27'0 0.0
2018-Jun-13 08:57N 48°39' W 123°27'0 0.0
2018-Jun-13 08:27N 48°39' W 123°27'0 0.0
2018-Jun-13 01:45N 48°39' W 123°27'0 0.0
2018-Jun-13 01:15N 48°39' W 123°27'0 0.0
2018-Jun-13 00:57N 48°39' W 123°27'0 0.0
2018-Jun-12 23:00N 48°39' W 123°27'0 0.0
2018-Jun-12 22:30N 48°39' W 123°27'0 0.0
2018-Jun-12 22:00N 48°39' W 123°27'0 0.0
2018-Jun-12 21:21N 48°39' W 123°27'0 0.0
2018-Jun-12 20:57N 48°39' W 123°27'0 0.0
2018-Jun-12 18:24N 48°39' W 123°27'0 0.0
2018-Jun-12 18:00N 48°39' W 123°27'0 0.0
2018-Jun-12 17:30N 48°39' W 123°27'0 0.0
2018-Jun-12 17:00N 48°39' W 123°27'0 0.0
2018-Jun-12 16:30N 48°39' W 123°27'0 0.0
2018-Jun-12 15:54N 48°39' W 123°27'0 0.0
2018-Jun-12 15:24N 48°39' W 123°27'0 0.0
2018-Jun-12 14:18N 48°39' W 123°27'0 0.0
2018-Jun-12 08:30N 48°39' W 123°27'0 0.0
2018-Jun-12 06:54N 48°39' W 123°27'0 0.0
2018-Jun-12 04:00N 48°39' W 123°27'0 0.0
2018-Jun-12 03:27N 48°39' W 123°27'0 0.0
2018-Jun-12 02:57N 48°39' W 123°27'0 0.0
2018-Jun-12 02:27N 48°39' W 123°27'0 0.0
2018-Jun-12 01:57N 48°39' W 123°27'0 0.0
2018-Jun-12 01:27N 48°39' W 123°27'0 0.0
2018-Jun-12 00:57N 48°39' W 123°27'0 0.0
2018-Jun-12 00:30N 48°39' W 123°27'0 0.0
2018-Jun-11 23:57N 48°39' W 123°27'0 0.0
2018-Jun-11 23:30N 48°39' W 123°27'0 0.0
2018-Jun-11 22:51N 48°39' W 123°27'0 0.0
2018-Jun-11 22:27N 48°39' W 123°27'0 0.0
2018-Jun-11 22:00N 48°39' W 123°27'0 0.0
2018-Jun-11 21:27N 48°39' W 123°27'0 0.0
2018-Jun-11 20:57N 48°39' W 123°27'0 0.0
2018-Jun-11 20:15N 48°39' W 123°27'0 0.0
2018-Jun-11 18:00N 48°39' W 123°27'0 0.0
2018-Jun-11 17:30N 48°39' W 123°27'0 0.0
2018-Jun-11 17:00N 48°39' W 123°27'0 0.0
2018-Jun-11 16:18N 48°39' W 123°27'0 0.0
2018-Jun-11 15:48N 48°39' W 123°27'0 0.0
2018-Jun-11 15:24N 48°39' W 123°27'0 0.0
2018-Jun-11 15:00N 48°39' W 123°27'0 0.0
2018-Jun-11 14:30N 48°39' W 123°27'0 0.0
2018-Jun-11 14:00N 48°39' W 123°27'0 0.0
2018-Jun-11 13:30N 48°39' W 123°27'0 0.0
2018-Jun-11 12:48N 48°39' W 123°27'0 0.0
2018-Jun-11 12:30N 48°39' W 123°27'0 0.0
2018-Jun-11 11:24N 48°39' W 123°27'0 0.0
2018-Jun-11 11:00N 48°39' W 123°27'0 0.0
2018-Jun-11 10:30N 48°39' W 123°27'0 0.0
2018-Jun-11 10:00N 48°39' W 123°27'0 0.0
2018-Jun-11 09:18N 48°39' W 123°27'0 0.0
2018-Jun-11 08:48N 48°39' W 123°27'0 0.0
2018-Jun-11 08:24N 48°39' W 123°27'0 0.0
2018-Jun-11 08:00N 48°39' W 123°27'0 0.0
2018-Jun-11 07:30N 48°39' W 123°27'0 0.0
2018-Jun-11 07:00N 48°39' W 123°27'0 0.0
2018-Jun-11 06:30N 48°39' W 123°27'0 0.0
2018-Jun-11 06:00N 48°39' W 123°27'0 0.0
2018-Jun-11 05:30N 48°39' W 123°27'0 0.0
2018-Jun-11 05:00N 48°39' W 123°27'0 0.0
2018-Jun-11 04:27N 48°39' W 123°27'0 0.0
2018-Jun-11 03:54N 48°39' W 123°27'0 0.0
2018-Jun-11 03:21N 48°39' W 123°27'0 0.0
2018-Jun-11 03:00N 48°39' W 123°27'0 0.0
2018-Jun-11 02:30N 48°39' W 123°27'0 0.0
2018-Jun-11 01:54N 48°39' W 123°27'0 0.0
2018-Jun-11 00:48N 48°39' W 123°27'0 0.0
2018-Jun-11 00:24N 48°39' W 123°27'0 0.0
2018-Jun-10 22:42N 48°39' W 123°27'0 0.0
2018-Jun-10 22:06N 48°39' W 123°27'0 0.0
2018-Jun-10 21:48N 48°39' W 123°27'0 0.0
2018-Jun-10 21:24N 48°39' W 123°27'0 0.0
2018-Jun-10 20:06N 48°39' W 123°27'0 0.0
2018-Jun-10 19:54N 48°39' W 123°27'0 0.0
2018-Jun-10 19:24N 48°39' W 123°27'0 0.0
2018-Jun-10 18:00N 48°39' W 123°27'0 0.0
2018-Jun-10 17:12N 48°39' W 123°27'0 0.0
2018-Jun-10 17:00N 48°39' W 123°27'0 0.0
2018-Jun-10 16:30N 48°39' W 123°27'0 0.0
2018-Jun-10 15:54N 48°39' W 123°27'0 0.0
2018-Jun-10 15:30N 48°39' W 123°27'0 0.0
2018-Jun-10 15:00N 48°39' W 123°27'0 0.0
2018-Jun-10 14:30N 48°39' W 123°27'0 0.0
2018-Jun-10 13:24N 48°39' W 123°27'0 0.0
2018-Jun-10 13:00N 48°39' W 123°27'0 0.0
2018-Jun-10 12:24N 48°39' W 123°27'0 0.0
2018-Jun-10 11:54N 48°39' W 123°27'0 0.0
2018-Jun-10 11:30N 48°39' W 123°27'0 0.0
2018-Jun-10 11:00N 48°39' W 123°27'0 0.0
2018-Jun-10 10:24N 48°39' W 123°27'0 0.0
2018-Jun-10 09:54N 48°39' W 123°27'0 0.0
2018-Jun-10 09:27N 48°39' W 123°27'0 0.0
2018-Jun-10 08:54N 48°39' W 123°27'0 0.0
2018-Jun-10 08:24N 48°39' W 123°27'0 0.0
2018-Jun-10 07:57N 48°39' W 123°27'0 0.0
2018-Jun-10 07:30N 48°39' W 123°27'0 0.0
2018-Jun-10 06:57N 48°39' W 123°27'0 0.0
2018-Jun-10 06:30N 48°39' W 123°27'0 0.0
2018-Jun-10 06:00N 48°39' W 123°27'0 0.0
2018-Jun-10 05:30N 48°39' W 123°27'0 0.0
2018-Jun-10 05:00N 48°39' W 123°27'0 0.0
2018-Jun-10 04:27N 48°39' W 123°27'0 0.0
2018-Jun-10 03:51N 48°39' W 123°27'0 0.0
2018-Jun-10 03:27N 48°39' W 123°27'0 0.0
2018-Jun-10 03:00N 48°39' W 123°27'0 0.0
2018-Jun-10 02:18N 48°39' W 123°27'0 0.0
2018-Jun-10 01:54N 48°39' W 123°27'0 0.0
2018-Jun-10 01:30N 48°39' W 123°27'0 0.0
2018-Jun-10 01:00N 48°39' W 123°27'0 0.0
2018-Jun-10 00:24N 48°39' W 123°27'0 0.0
2018-Jun-09 23:57N 48°39' W 123°27'0 0.0
2018-Jun-09 23:21N 48°39' W 123°27'0 0.0
2018-Jun-09 22:54N 48°39' W 123°27'0 0.0
2018-Jun-09 22:27N 48°39' W 123°27'0 0.0
2018-Jun-09 22:00N 48°39' W 123°27'0 0.0
2018-Jun-09 21:03N 48°39' W 123°27'0 0.0
2018-Jun-09 20:39N 48°39' W 123°27'0 0.0
2018-Jun-09 20:27N 48°39' W 123°27'0 0.0
2018-Jun-09 19:45N 48°39' W 123°27'0 0.0
2018-Jun-09 19:30N 48°39' W 123°27'0 0.0
2018-Jun-09 18:54N 48°39' W 123°27'0 0.0
2018-Jun-09 18:27N 48°39' W 123°27'0 0.0
2018-Jun-09 17:54N 48°39' W 123°27'0 0.0
2018-Jun-09 17:24N 48°39' W 123°27'0 0.0
2018-Jun-09 17:00N 48°39' W 123°27'0 0.0
2018-Jun-09 16:30N 48°39' W 123°27'0 0.0
2018-Jun-09 15:48N 48°39' W 123°27'0 0.0
2018-Jun-09 15:00N 48°39' W 123°27'0 0.0
2018-Jun-09 14:30N 48°39' W 123°27'0 0.0
2018-Jun-09 14:00N 48°39' W 123°27'0 0.0
2018-Jun-09 13:30N 48°39' W 123°27'0 0.0
2018-Jun-09 12:54N 48°39' W 123°27'0 0.0
2018-Jun-09 11:54N 48°39' W 123°27'0 0.0
2018-Jun-09 11:30N 48°39' W 123°27'0 0.0
2018-Jun-09 10:54N 48°39' W 123°27'0 0.0
2018-Jun-09 10:21N 48°39' W 123°27'0 0.0
2018-Jun-09 09:54N 48°39' W 123°27'0 0.0
2018-Jun-09 06:06N 48°39' W 123°27'0 0.0
2018-Jun-09 05:36N 48°39' W 123°27'0 0.0
2018-Jun-09 05:30N 48°39' W 123°27'0 0.0
2018-Jun-09 04:54N 48°39' W 123°27'0 0.0
2018-Jun-09 04:30N 48°39' W 123°27'0 0.0
2018-Jun-09 03:54N 48°39' W 123°27'0 0.0
2018-Jun-09 02:06N 48°39' W 123°27'0 0.0
2018-Jun-09 02:00N 48°39' W 123°27'0 0.0
2018-Jun-09 01:27N 48°39' W 123°27'0 0.0
2018-Jun-09 00:12N 48°39' W 123°27'0 0.0
2018-Jun-09 00:00N 48°39' W 123°27'0 0.0
2018-Jun-08 22:18N 48°39' W 123°27'0 0.0
2018-Jun-08 22:00N 48°39' W 123°27'0 0.0
2018-Jun-08 21:30N 48°39' W 123°27'0 0.0
2018-Jun-08 20:54N 48°39' W 123°27'0 0.0
2018-Jun-08 20:27N 48°39' W 123°27'0 0.0
2018-Jun-08 19:54N 48°39' W 123°27'0 0.0
2018-Jun-08 19:30N 48°39' W 123°27'0 0.0
2018-Jun-08 18:51N 48°39' W 123°27'0 0.0
2018-Jun-08 18:21N 48°39' W 123°27'0 0.0
2018-Jun-08 17:57N 48°39' W 123°27'0 0.0
2018-Jun-08 17:27N 48°39' W 123°27'  

Dump ship's entire track history